EmailTwitter


Surface observations / Quebec / CYUL (71627)

Regions: Quebec | Canada | USA | Europe | France | UK | Elsewhere
Station
Display
Info & Location for CYUL (71627) | Help decoding METAR

Weather Conditions observed on 2020/09/18 at 13:00 UTC at MONTREAL INTL A, QB (CYUL)

Sky conditions: partly cloudy.

Temperature: 10.0 Celsius.

Dewpoint: 1.0 Celsius.

Relative Humidity: 54%

Windchill Factor: 8.

Winds: North-northeast at 15 km/h or 8 knots.

Mean Sea level Pressure: 102.19 kilopascals.

Altimeter Setting (QNH): 102.17 kilopascals or 30.17 inches of mercury.

Horizontal visibility: 30.00 statute miles or 48.00 kilometers.

Height of the Ceiling: 7620 metres ( 25000 feet ).

Coded METAR:

CYUL 181300Z 02008KT 30SM SCT160 BKN250 10/01 A3017 RMK AC3CI2 SLP219=